Time;durP1;ratioP1;P1;durP2;ratioP2;P2;SDS_P1;SDS_P2;PMS_P1;PMS_P2;Temp;Humidity;BMP_temperature;BMP_pressure;BME280_temperature;BME280_humidity;BME280_pressure;Samples;Min_cycle;Max_cycle;Signal;HPM_P1;HPM_P2
2023/05/20 00:00:25;;;;;;;12.30;9.05;;;;;;;;;;4338682;32;318513;-83
2023/05/20 00:02:52;;;;;;;17.17;9.13;;;;;;;;;;4338535;32;318089;-83
2023/05/20 00:05:19;;;;;;;12.27;9.18;;;;;;;;;;4314689;32;336619;-83
2023/05/20 00:07:46;;;;;;;10.13;8.25;;;;;;;;;;4339465;32;318336;-83
2023/05/20 00:10:12;;;;;;;18.75;11.05;;;;;;;;;;4330456;32;318088;-83
2023/05/20 00:12:39;;;;;;;10.80;8.87;;;;;;;;;;4339643;32;319451;-83
2023/05/20 00:15:07;;;;;;;23.23;9.17;;;;;;;;;;4328968;32;318077;-84
2023/05/20 00:17:35;;;;;;;17.23;10.23;;;;;;;;;;4337397;32;349138;-83
2023/05/20 00:20:04;;;;;;;14.63;9.50;;;;;;;;;;4327497;32;350323;-83
2023/05/20 00:22:30;;;;;;;11.93;8.75;;;;;;;;;;4339267;32;318641;-83
2023/05/20 00:24:57;;;;;;;12.75;9.50;;;;;;;;;;4330025;32;318184;-83
2023/05/20 00:27:24;;;;;;;21.37;9.60;;;;;;;;;;4338121;32;318472;-83
2023/05/20 00:29:50;;;;;;;19.85;9.00;;;;;;;;;;4339091;32;318271;-84
2023/05/20 00:32:17;;;;;;;11.15;8.68;;;;;;;;;;4329929;32;318065;-82
2023/05/20 00:34:55;;;;;;;14.10;8.52;;;;;;;;;;4324912;32;318347;-82
2023/05/20 00:37:22;;;;;;;16.05;8.95;;;;;;;;;;4323365;32;417479;-82
2023/05/20 00:39:49;;;;;;;12.93;9.75;;;;;;;;;;4323858;32;318292;-81
2023/05/20 00:42:20;;;;;;;16.60;10.32;;;;;;;;;;4327729;32;318731;-82
2023/05/20 00:44:46;;;;;;;21.50;11.37;;;;;;;;;;4339200;32;319366;-82
2023/05/20 00:47:14;;;;;;;15.63;11.38;;;;;;;;;;4328591;32;319179;-81
2023/05/20 00:49:41;;;;;;;16.05;11.20;;;;;;;;;;4337539;32;318675;-82
2023/05/20 00:52:09;;;;;;;21.17;12.35;;;;;;;;;;4328798;32;333113;-81
2023/05/20 00:54:36;;;;;;;18.95;10.77;;;;;;;;;;4324908;32;319448;-81
2023/05/20 00:57:04;;;;;;;15.83;8.73;;;;;;;;;;4328029;32;319547;-82
2023/05/20 00:59:30;;;;;;;13.55;9.20;;;;;;;;;;4338762;32;318577;-81
2023/05/20 01:01:57;;;;;;;14.83;8.37;;;;;;;;;;4328163;32;318043;-82
2023/05/20 01:04:24;;;;;;;12.52;8.98;;;;;;;;;;4337554;32;318703;-81
2023/05/20 01:06:51;;;;;;;12.13;9.48;;;;;;;;;;4324522;32;318464;-81
2023/05/20 01:09:19;;;;;;;13.00;9.30;;;;;;;;;;4328090;32;322849;-81
2023/05/20 01:11:51;;;;;;;13.67;8.70;;;;;;;;;;4337477;32;317630;-81
2023/05/20 01:14:20;;;;;;;11.30;8.35;;;;;;;;;;4328041;32;318308;-81
2023/05/20 01:16:49;;;;;;;11.18;8.05;;;;;;;;;;4338588;32;317780;-81
2023/05/20 01:19:26;;;;;;;14.52;9.27;;;;;;;;;;4328726;32;317610;-81
2023/05/20 01:21:54;;;;;;;17.37;9.90;;;;;;;;;;4337086;32;317824;-81
2023/05/20 01:24:22;;;;;;;9.73;7.80;;;;;;;;;;4343623;32;318186;-81
2023/05/20 01:26:49;;;;;;;9.05;7.87;;;;;;;;;;4353329;32;316682;-81
2023/05/20 01:29:17;;;;;;;15.57;8.55;;;;;;;;;;4330368;32;317032;-81
2023/05/20 01:31:45;;;;;;;10.23;7.93;;;;;;;;;;4352396;32;347647;-81
2023/05/20 01:34:12;;;;;;;12.77;8.05;;;;;;;;;;4331732;32;318462;-81
2023/05/20 01:36:40;;;;;;;12.27;8.52;;;;;;;;;;4349092;32;318477;-81
2023/05/20 01:39:07;;;;;;;13.98;8.20;;;;;;;;;;4346325;32;318243;-81
2023/05/20 01:41:35;;;;;;;18.90;8.90;;;;;;;;;;4367419;32;317508;-82
2023/05/20 01:44:02;;;;;;;13.68;8.98;;;;;;;;;;4355336;32;318096;-82
2023/05/20 01:46:32;;;;;;;10.77;8.40;;;;;;;;;;4366910;32;317705;-81
2023/05/20 01:48:59;;;;;;;10.02;8.15;;;;;;;;;;4359843;32;317235;-83
2023/05/20 01:51:26;;;;;;;12.37;8.30;;;;;;;;;;4355704;32;318068;-79
2023/05/20 01:53:53;;;;;;;12.35;8.63;;;;;;;;;;4352668;32;318359;-81
2023/05/20 01:56:20;;;;;;;11.23;7.90;;;;;;;;;;4343280;32;318585;-81
2023/05/20 01:58:49;;;;;;;10.10;8.05;;;;;;;;;;4353059;32;317957;-81
2023/05/20 02:01:15;;;;;;;18.83;9.10;;;;;;;;;;4343022;32;318363;-81
2023/05/20 02:03:42;;;;;;;14.73;10.57;;;;;;;;;;4351886;32;318734;-82
2023/05/20 02:06:09;;;;;;;12.80;9.70;;;;;;;;;;4342561;32;337030;-82
2023/05/20 02:08:35;;;;;;;22.90;10.43;;;;;;;;;;4352912;32;318474;-82
2023/05/20 02:11:02;;;;;;;15.60;9.80;;;;;;;;;;4341897;32;319097;-82
2023/05/20 02:13:29;;;;;;;12.50;9.68;;;;;;;;;;4353135;32;318361;-81
2023/05/20 02:15:58;;;;;;;14.43;10.70;;;;;;;;;;4349672;32;318197;-83
2023/05/20 02:18:25;;;;;;;21.90;10.68;;;;;;;;;;4352557;32;318750;-82
2023/05/20 02:20:52;;;;;;;14.07;10.50;;;;;;;;;;4352257;32;319471;-82
2023/05/20 02:23:19;;;;;;;16.10;11.57;;;;;;;;;;4328559;32;319556;-82
2023/05/20 02:25:45;;;;;;;19.60;11.30;;;;;;;;;;4338226;32;319041;-82
2023/05/20 02:28:12;;;;;;;24.70;11.03;;;;;;;;;;4326840;32;319155;-82
2023/05/20 02:30:39;;;;;;;13.90;10.33;;;;;;;;;;4337384;32;319559;-82
2023/05/20 02:33:08;;;;;;;21.70;11.30;;;;;;;;;;4328802;32;319017;-82
2023/05/20 02:35:35;;;;;;;18.13;10.60;;;;;;;;;;4348354;32;342073;-82
2023/05/20 02:38:01;;;;;;;17.00;10.03;;;;;;;;;;4334126;32;319205;-82
2023/05/20 02:40:28;;;;;;;13.33;10.63;;;;;;;;;;4336467;32;319324;-82
2023/05/20 02:42:55;;;;;;;13.80;9.77;;;;;;;;;;4336130;32;336381;-82
2023/05/20 02:45:21;;;;;;;12.87;8.73;;;;;;;;;;4328207;32;318682;-82
2023/05/20 02:47:48;;;;;;;11.98;9.65;;;;;;;;;;4336654;32;318193;-82
2023/05/20 02:50:16;;;;;;;11.17;9.27;;;;;;;;;;4326232;32;334941;-82
2023/05/20 02:52:44;;;;;;;15.73;9.10;;;;;;;;;;4335240;33;357901;-81
2023/05/20 02:55:11;;;;;;;10.80;8.77;;;;;;;;;;4328049;32;318582;-82
2023/05/20 02:57:38;;;;;;;14.60;10.43;;;;;;;;;;4337696;32;318387;-82
2023/05/20 03:00:06;;;;;;;11.97;9.03;;;;;;;;;;4327747;32;319477;-82
2023/05/20 03:02:34;;;;;;;19.27;9.70;;;;;;;;;;4337392;32;318182;-82
2023/05/20 03:05:01;;;;;;;14.43;9.73;;;;;;;;;;4327377;32;317502;-82
2023/05/20 03:07:29;;;;;;;16.57;10.17;;;;;;;;;;4337636;33;318177;-82
2023/05/20 03:09:57;;;;;;;15.53;10.60;;;;;;;;;;4337678;32;319302;-81
2023/05/20 03:12:25;;;;;;;14.17;10.43;;;;;;;;;;4341036;32;419258;-81
2023/05/20 03:14:54;;;;;;;14.77;10.27;;;;;;;;;;4355122;32;319727;-82
2023/05/20 03:17:20;;;;;;;16.83;10.17;;;;;;;;;;4341995;32;320011;-82
2023/05/20 03:19:47;;;;;;;15.83;8.90;;;;;;;;;;4350234;32;319518;-82
2023/05/20 03:22:14;;;;;;;17.83;9.10;;;;;;;;;;4343860;32;318327;-82
2023/05/20 03:24:43;;;;;;;17.13;9.30;;;;;;;;;;4344488;32;318377;-82
2023/05/20 03:27:09;;;;;;;14.77;9.40;;;;;;;;;;4330142;32;317702;-82
2023/05/20 03:29:36;;;;;;;11.60;8.43;;;;;;;;;;4338810;32;317964;-82
2023/05/20 03:32:03;;;;;;;22.70;8.67;;;;;;;;;;4328222;32;345767;-82
2023/05/20 03:34:30;;;;;;;16.43;9.30;;;;;;;;;;4333030;32;318748;-82
2023/05/20 03:36:58;;;;;;;22.00;8.87;;;;;;;;;;4338787;32;318036;-83
2023/05/20 03:39:25;;;;;;;13.73;9.17;;;;;;;;;;4354252;32;318389;-81
2023/05/20 03:41:53;;;;;;;11.77;8.67;;;;;;;;;;4353076;32;328752;-82
2023/05/20 03:44:20;;;;;;;12.93;9.60;;;;;;;;;;4343137;32;327500;-83
2023/05/20 03:46:46;;;;;;;16.50;9.53;;;;;;;;;;4354377;32;317882;-83
2023/05/20 03:49:13;;;;;;;14.27;9.43;;;;;;;;;;4343231;32;318456;-83
2023/05/20 03:51:40;;;;;;;14.03;10.00;;;;;;;;;;4353458;32;317565;-83
2023/05/20 03:54:07;;;;;;;20.03;9.57;;;;;;;;;;4345172;32;319457;-83
2023/05/20 03:56:33;;;;;;;19.27;8.93;;;;;;;;;;4354438;32;317542;-82
2023/05/20 03:59:01;;;;;;;10.47;8.93;;;;;;;;;;4317175;32;318529;-84
2023/05/20 04:01:28;;;;;;;20.90;10.90;;;;;;;;;;4338468;32;317384;-83
2023/05/20 04:03:55;;;;;;;17.67;9.23;;;;;;;;;;4336484;32;341082;-84
2023/05/20 04:06:22;;;;;;;16.13;9.10;;;;;;;;;;4329906;32;318089;-83
2023/05/20 04:08:49;;;;;;;18.20;9.73;;;;;;;;;;4339904;32;318633;-83
2023/05/20 04:11:16;;;;;;;17.70;10.25;;;;;;;;;;4329305;32;320663;-84
2023/05/20 04:13:42;;;;;;;12.47;9.93;;;;;;;;;;4339452;32;319374;-83
2023/05/20 04:16:11;;;;;;;16.13;11.87;;;;;;;;;;4328671;32;318358;-83
2023/05/20 04:18:39;;;;;;;19.10;10.27;;;;;;;;;;4339022;32;318857;-83
2023/05/20 04:21:07;;;;;;;13.17;10.90;;;;;;;;;;4328188;32;318899;-83
2023/05/20 04:23:33;;;;;;;19.67;12.00;;;;;;;;;;4338199;32;319333;-83
2023/05/20 04:26:01;;;;;;;15.40;11.00;;;;;;;;;;4328632;32;319479;-83
2023/05/20 04:28:30;;;;;;;14.47;11.63;;;;;;;;;;4339112;32;319438;-83
2023/05/20 04:30:59;;;;;;;16.60;11.27;;;;;;;;;;4329164;32;318592;-85
2023/05/20 04:33:27;;;;;;;24.15;12.45;;;;;;;;;;4338617;32;319599;-83
2023/05/20 04:35:57;;;;;;;16.87;12.20;;;;;;;;;;4339122;32;319685;-83
2023/05/20 04:38:28;;;;;;;16.70;11.60;;;;;;;;;;4338484;32;418633;-83
2023/05/20 04:40:57;;;;;;;17.50;12.17;;;;;;;;;;4344149;32;318888;-83
2023/05/20 04:43:24;;;;;;;15.23;10.83;;;;;;;;;;4340134;32;419782;-83
2023/05/20 04:45:51;;;;;;;19.57;12.70;;;;;;;;;;4353876;32;319466;-83
2023/05/20 04:48:19;;;;;;;21.77;13.13;;;;;;;;;;4342574;32;319176;-83
2023/05/20 04:50:48;;;;;;;22.83;13.00;;;;;;;;;;4353619;32;319509;-83
2023/05/20 04:53:15;;;;;;;28.90;13.60;;;;;;;;;;4344210;32;319533;-84
2023/05/20 04:55:42;;;;;;;16.80;11.80;;;;;;;;;;4353946;32;319246;-84
2023/05/20 04:58:13;;;;;;;16.17;12.43;;;;;;;;;;4343157;32;319394;-84
2023/05/20 05:00:40;;;;;;;21.90;12.87;;;;;;;;;;4352578;32;319310;-83
2023/05/20 05:03:07;;;;;;;18.17;13.03;;;;;;;;;;4342353;32;357199;-83
2023/05/20 05:05:35;;;;;;;19.08;9.77;;;;;;;;;;4353744;32;319409;-84
2023/05/20 05:08:03;;;;;;;16.45;10.35;;;;;;;;;;4342865;32;317549;-83
2023/05/20 05:10:29;;;;;;;12.13;9.83;;;;;;;;;;4353211;32;319559;-83
2023/05/20 05:12:56;;;;;;;19.43;10.10;;;;;;;;;;4349387;32;318298;-85
2023/05/20 05:15:23;;;;;;;15.90;9.83;;;;;;;;;;4352648;32;319354;-84
2023/05/20 05:17:50;;;;;;;13.97;9.80;;;;;;;;;;4353436;32;318135;-83
2023/05/20 05:20:17;;;;;;;18.03;10.17;;;;;;;;;;4343217;32;318025;-84
2023/05/20 05:22:44;;;;;;;14.20;10.50;;;;;;;;;;4353063;32;319322;-83
2023/05/20 05:25:12;;;;;;;15.47;10.83;;;;;;;;;;4342441;32;319292;-83
2023/05/20 05:27:39;;;;;;;17.37;11.17;;;;;;;;;;4350998;32;348835;-83
2023/05/20 05:30:07;;;;;;;17.80;10.03;;;;;;;;;;4355764;32;319329;-83
2023/05/20 05:32:34;;;;;;;17.50;10.90;;;;;;;;;;4364783;32;342230;-82
2023/05/20 05:35:01;;;;;;;21.27;11.10;;;;;;;;;;4342025;32;319622;-84
2023/05/20 05:37:28;;;;;;;14.27;10.53;;;;;;;;;;4349918;32;318553;-84
2023/05/20 05:39:54;;;;;;;14.40;11.10;;;;;;;;;;4338664;32;319048;-82
2023/05/20 05:42:22;;;;;;;16.33;10.50;;;;;;;;;;4327673;32;420276;-83
2023/05/20 05:44:50;;;;;;;17.37;10.00;;;;;;;;;;4354975;32;319480;-83
2023/05/20 05:47:17;;;;;;;15.43;10.73;;;;;;;;;;4357191;32;355727;-83
2023/05/20 05:49:44;;;;;;;15.90;10.50;;;;;;;;;;4372733;32;317333;-82
2023/05/20 05:52:10;;;;;;;16.67;9.90;;;;;;;;;;4359006;32;318888;-84
2023/05/20 05:54:37;;;;;;;15.35;10.70;;;;;;;;;;4370761;32;316818;-84
2023/05/20 05:57:04;;;;;;;14.50;10.65;;;;;;;;;;4355033;32;318514;-82
2023/05/20 05:59:32;;;;;;;15.70;10.33;;;;;;;;;;4355537;32;319363;-81
2023/05/20 06:01:59;;;;;;;14.10;10.27;;;;;;;;;;4344011;32;319110;-83
2023/05/20 06:04:25;;;;;;;19.87;12.30;;;;;;;;;;4351846;32;319431;-85
2023/05/20 06:06:52;;;;;;;26.37;12.87;;;;;;;;;;4345144;32;335539;-86
2023/05/20 06:09:19;;;;;;;21.02;12.40;;;;;;;;;;4342005;32;319602;-86
2023/05/20 06:11:45;;;;;;;24.57;12.57;;;;;;;;;;4337965;32;319511;-83
2023/05/20 06:14:12;;;;;;;21.08;13.10;;;;;;;;;;4326474;32;319411;-81
2023/05/20 06:16:40;;;;;;;15.38;11.90;;;;;;;;;;4336084;32;319095;-81
2023/05/20 06:19:08;;;;;;;18.83;11.83;;;;;;;;;;4326174;32;319699;-85
2023/05/20 06:21:35;;;;;;;22.48;11.52;;;;;;;;;;4334089;32;319358;-82
2023/05/20 06:24:02;;;;;;;16.92;11.70;;;;;;;;;;4325940;32;319824;-81
2023/05/20 06:26:28;;;;;;;16.25;11.02;;;;;;;;;;4337035;32;319416;-81
2023/05/20 06:28:55;;;;;;;15.68;10.45;;;;;;;;;;4335622;32;351371;-81
2023/05/20 06:31:22;;;;;;;19.48;9.55;;;;;;;;;;4324310;32;419930;-85
2023/05/20 06:33:50;;;;;;;16.87;10.10;;;;;;;;;;4340327;32;318489;-83
2023/05/20 06:36:17;;;;;;;20.83;10.90;;;;;;;;;;4327414;32;319013;-85
2023/05/20 06:38:44;;;;;;;21.08;10.95;;;;;;;;;;4337707;33;319139;-84
2023/05/20 06:41:10;;;;;;;14.80;10.15;;;;;;;;;;4327914;32;319655;-82
2023/05/20 06:43:37;;;;;;;19.52;12.18;;;;;;;;;;4340530;32;319182;-82
2023/05/20 06:46:04;;;;;;;15.02;10.50;;;;;;;;;;4342554;32;319739;-85
2023/05/20 06:48:30;;;;;;;16.55;10.07;;;;;;;;;;4339189;32;319270;-81
2023/05/20 06:50:58;;;;;;;19.30;9.77;;;;;;;;;;4329449;32;319606;-82
2023/05/20 06:53:25;;;;;;;12.33;9.30;;;;;;;;;;4339478;32;318552;-84
2023/05/20 06:55:54;;;;;;;18.02;10.52;;;;;;;;;;4340519;32;318573;-83
2023/05/20 06:58:21;;;;;;;14.75;9.25;;;;;;;;;;4330272;32;318872;-83
2023/05/20 07:00:48;;;;;;;15.32;10.02;;;;;;;;;;4339087;32;317700;-82
2023/05/20 07:03:14;;;;;;;12.02;9.75;;;;;;;;;;4329702;32;319323;-83
2023/05/20 07:05:41;;;;;;;21.60;9.38;;;;;;;;;;4339059;32;318167;-82
2023/05/20 07:08:10;;;;;;;15.38;9.07;;;;;;;;;;4330464;32;318587;-82
2023/05/20 07:10:37;;;;;;;11.40;8.07;;;;;;;;;;4339442;32;318623;-81
2023/05/20 07:13:03;;;;;;;24.50;8.57;;;;;;;;;;4329124;32;318379;-82
2023/05/20 07:15:31;;;;;;;12.88;8.77;;;;;;;;;;4339062;32;352869;-82
2023/05/20 07:17:57;;;;;;;14.25;8.57;;;;;;;;;;4328710;32;318487;-83
2023/05/20 07:20:24;;;;;;;9.57;8.07;;;;;;;;;;4338846;32;318763;-82
2023/05/20 07:22:51;;;;;;;12.63;8.67;;;;;;;;;;4339820;32;321583;-82
2023/05/20 07:25:19;;;;;;;19.00;8.65;;;;;;;;;;4330558;32;318253;-81
2023/05/20 07:27:46;;;;;;;11.63;8.48;;;;;;;;;;4340242;32;318660;-82
2023/05/20 07:30:13;;;;;;;16.05;7.40;;;;;;;;;;4330220;32;317951;-82
2023/05/20 07:32:40;;;;;;;15.18;7.97;;;;;;;;;;4337475;32;318391;-82
2023/05/20 07:35:07;;;;;;;15.13;7.85;;;;;;;;;;4321396;32;318468;-83
2023/05/20 07:37:34;;;;;;;15.05;7.82;;;;;;;;;;4354785;32;318259;-83
2023/05/20 07:40:01;;;;;;;14.48;8.40;;;;;;;;;;4345133;32;318330;-81
2023/05/20 07:42:29;;;;;;;14.23;8.18;;;;;;;;;;4354249;32;318139;-82
2023/05/20 07:44:56;;;;;;;13.73;8.00;;;;;;;;;;4353784;32;317597;-87
2023/05/20 07:47:22;;;;;;;11.30;7.20;;;;;;;;;;4323519;32;419569;-82
2023/05/20 07:49:49;;;;;;;10.88;7.40;;;;;;;;;;4337984;32;318326;-84
2023/05/20 07:52:16;;;;;;;16.05;7.60;;;;;;;;;;4327943;32;318205;-86
2023/05/20 07:54:42;;;;;;;10.07;7.12;;;;;;;;;;4336615;32;317978;-85
2023/05/20 07:57:09;;;;;;;11.80;6.75;;;;;;;;;;4326443;32;318749;-85
2023/05/20 07:59:37;;;;;;;13.20;6.97;;;;;;;;;;4337818;32;318349;-87
2023/05/20 08:02:05;;;;;;;11.18;6.62;;;;;;;;;;4328696;32;318678;-82
2023/05/20 08:04:32;;;;;;;12.57;6.15;;;;;;;;;;4340209;32;318478;-87
2023/05/20 08:06:58;;;;;;;11.88;6.75;;;;;;;;;;4327525;32;318548;-85
2023/05/20 08:09:25;;;;;;;9.43;6.15;;;;;;;;;;4340124;32;318316;-88
2023/05/20 08:11:52;;;;;;;11.02;6.25;;;;;;;;;;4339995;32;317575;-85
2023/05/20 08:14:18;;;;;;;14.13;6.57;;;;;;;;;;4328951;32;318190;-83
2023/05/20 08:16:46;;;;;;;9.85;5.95;;;;;;;;;;4339694;32;318226;-89
2023/05/20 08:19:13;;;;;;;16.52;7.28;;;;;;;;;;4329682;32;319925;-86
2023/05/20 08:21:40;;;;;;;12.32;6.35;;;;;;;;;;4339505;32;318309;-81
2023/05/20 08:24:06;;;;;;;10.70;6.25;;;;;;;;;;4329055;32;318340;-82
2023/05/20 08:26:33;;;;;;;8.52;5.85;;;;;;;;;;4338815;32;336401;-84
2023/05/20 08:29:00;;;;;;;13.43;7.28;;;;;;;;;;4329418;32;317622;-90
2023/05/20 08:31:26;;;;;;;15.80;7.28;;;;;;;;;;4338045;32;318183;-88
2023/05/20 08:33:54;;;;;;;12.95;6.35;;;;;;;;;;4329710;32;326433;-86
2023/05/20 08:36:22;;;;;;;15.75;6.10;;;;;;;;;;4318770;32;360180;-87
2023/05/20 08:38:49;;;;;;;8.93;6.70;;;;;;;;;;4341860;32;317523;-87
2023/05/20 08:41:16;;;;;;;11.95;6.10;;;;;;;;;;4335691;32;317219;-83
2023/05/20 08:43:43;;;;;;;12.45;5.75;;;;;;;;;;4351563;32;318758;-82
2023/05/20 08:46:10;;;;;;;10.75;6.25;;;;;;;;;;4343537;32;318289;-84
2023/05/20 08:48:37;;;;;;;9.30;6.12;;;;;;;;;;4352562;32;318295;-81
2023/05/20 08:51:09;;;;;;;11.65;6.93;;;;;;;;;;4343657;32;316752;-81
2023/05/20 08:53:35;;;;;;;11.90;6.43;;;;;;;;;;4351836;32;318282;-81
2023/05/20 08:56:02;;;;;;;13.90;7.25;;;;;;;;;;4342298;32;325057;-81
2023/05/20 08:58:29;;;;;;;11.27;6.10;;;;;;;;;;4353414;32;317680;-81
2023/05/20 09:00:57;;;;;;;9.73;6.15;;;;;;;;;;4353966;32;318250;-83
2023/05/20 09:03:24;;;;;;;9.15;5.97;;;;;;;;;;4340703;32;416212;-81
2023/05/20 09:05:51;;;;;;;13.00;6.55;;;;;;;;;;4353811;32;317646;-84
2023/05/20 09:08:24;;;;;;;9.93;6.55;;;;;;;;;;4342146;32;318937;-77
2023/05/20 09:10:52;;;;;;;8.63;6.90;;;;;;;;;;4362611;32;317454;-80
2023/05/20 09:13:19;;;;;;;11.00;5.85;;;;;;;;;;4342990;32;317688;-80
2023/05/20 09:15:45;;;;;;;12.25;6.62;;;;;;;;;;4356408;32;318693;-85
2023/05/20 09:18:13;;;;;;;9.30;5.00;;;;;;;;;;4355771;32;339429;-80
2023/05/20 09:20:40;;;;;;;12.52;5.82;;;;;;;;;;4356064;32;317280;-84
2023/05/20 09:23:10;;;;;;;8.70;5.95;;;;;;;;;;4342817;32;317686;-78
2023/05/20 09:25:38;;;;;;;9.30;6.05;;;;;;;;;;4351497;32;316994;-78
2023/05/20 09:28:05;;;;;;;8.93;5.50;;;;;;;;;;4343010;32;317473;-78
2023/05/20 09:30:32;;;;;;;11.15;5.70;;;;;;;;;;4353735;32;317122;-80
2023/05/20 09:33:01;;;;;;;11.30;6.18;;;;;;;;;;4342839;32;318181;-79
2023/05/20 09:35:28;;;;;;;19.58;7.03;;;;;;;;;;4353141;32;318217;-79
2023/05/20 09:37:56;;;;;;;9.13;5.70;;;;;;;;;;4346131;32;318343;-79
2023/05/20 09:40:25;;;;;;;10.23;5.90;;;;;;;;;;4336807;32;418143;-81
2023/05/20 09:42:56;;;;;;;6.80;5.93;;;;;;;;;;4339808;32;336818;-82
2023/05/20 09:45:23;;;;;;;8.52;5.82;;;;;;;;;;4331993;32;417729;-82
2023/05/20 09:48:07;;;;;;;10.38;6.72;;;;;;;;;;4338081;32;317258;-89
2023/05/20 09:50:35;;;;;;;14.35;6.20;;;;;;;;;;4326036;32;418793;-80
2023/05/20 09:53:03;;;;;;;10.20;4.95;;;;;;;;;;4335630;32;318674;-80
2023/05/20 09:55:30;;;;;;;7.72;5.32;;;;;;;;;;4354372;32;318008;-80
2023/05/20 09:58:01;;;;;;;6.20;5.32;;;;;;;;;;4339111;32;392724;-85
2023/05/20 10:00:28;;;;;;;13.15;6.15;;;;;;;;;;4357033;32;317224;-83
2023/05/20 10:02:55;;;;;;;11.38;6.03;;;;;;;;;;4354525;32;317002;-79
2023/05/20 10:05:25;;;;;;;6.47;5.35;;;;;;;;;;4325968;32;417454;-79
2023/05/20 10:08:14;;;;;;;9.15;6.30;;;;;;;;;;4337244;32;317487;-79
2023/05/20 10:10:49;;;;;;;11.27;4.90;;;;;;;;;;4336558;32;418424;-81
2023/05/20 10:13:27;;;;;;;13.43;5.25;;;;;;;;;;4341977;32;318425;-81
2023/05/20 10:16:03;;;;;;;9.48;5.60;;;;;;;;;;4358284;32;318360;-84
2023/05/20 10:18:43;;;;;;;7.78;4.85;;;;;;;;;;4353834;32;418287;-85
2023/05/20 10:21:17;;;;;;;8.98;5.78;;;;;;;;;;4357223;32;317440;-84
2023/05/20 10:23:44;;;;;;;8.05;5.50;;;;;;;;;;4363916;32;334388;-87
2023/05/20 10:26:10;;;;;;;10.70;5.47;;;;;;;;;;4340429;32;316907;-84
2023/05/20 10:28:41;;;;;;;6.50;5.28;;;;;;;;;;4348506;32;318361;-89
2023/05/20 10:31:18;;;;;;;6.45;4.87;;;;;;;;;;4338624;32;317675;-89
2023/05/20 10:33:46;;;;;;;6.12;5.28;;;;;;;;;;4347950;32;317293;-92
2023/05/20 10:36:24;;;;;;;7.53;5.32;;;;;;;;;;4338537;32;317286;-87
2023/05/20 10:38:54;;;;;;;7.60;5.60;;;;;;;;;;4350423;32;318060;-85
2023/05/20 10:41:21;;;;;;;10.73;5.40;;;;;;;;;;4341531;32;317098;-88
2023/05/20 10:43:59;;;;;;;7.95;4.97;;;;;;;;;;4353273;32;317740;-80
2023/05/20 10:46:26;;;;;;;7.85;4.65;;;;;;;;;;4339754;32;416268;-89
2023/05/20 10:48:53;;;;;;;6.07;4.70;;;;;;;;;;4351905;32;317262;-81
2023/05/20 10:51:20;;;;;;;9.18;4.43;;;;;;;;;;4342618;32;339539;-89
2023/05/20 10:53:47;;;;;;;10.88;4.32;;;;;;;;;;4353022;32;317313;-82
2023/05/20 10:56:18;;;;;;;11.60;4.95;;;;;;;;;;4343177;32;317675;-85
2023/05/20 10:58:45;;;;;;;10.43;4.40;;;;;;;;;;4351821;32;318375;-92
2023/05/20 11:01:13;;;;;;;10.23;5.30;;;;;;;;;;4341167;32;318917;-89
2023/05/20 11:03:41;;;;;;;6.15;4.30;;;;;;;;;;4353181;32;318657;-83
2023/05/20 11:06:12;;;;;;;10.13;4.77;;;;;;;;;;4342110;32;322384;-82
2023/05/20 11:08:38;;;;;;;6.68;4.40;;;;;;;;;;4351127;32;347585;-79
2023/05/20 11:11:06;;;;;;;6.50;5.75;;;;;;;;;;4342907;32;317532;-83
2023/05/20 11:13:33;;;;;;;6.10;5.15;;;;;;;;;;4350896;32;317469;-88
2023/05/20 11:16:01;;;;;;;11.95;4.55;;;;;;;;;;4340574;32;369323;-89
2023/05/20 11:18:30;;;;;;;11.55;5.28;;;;;;;;;;4352164;32;318162;-90
2023/05/20 11:20:57;;;;;;;6.72;4.47;;;;;;;;;;4342252;32;318184;-88
2023/05/20 11:23:24;;;;;;;6.95;4.35;;;;;;;;;;4352088;32;317157;-86
2023/05/20 11:25:52;;;;;;;6.90;5.15;;;;;;;;;;4351221;32;316723;-89
2023/05/20 11:28:20;;;;;;;18.12;5.07;;;;;;;;;;4342630;32;316563;-88
2023/05/20 11:30:48;;;;;;;7.65;5.75;;;;;;;;;;4350549;32;342886;-90
2023/05/20 11:33:16;;;;;;;11.80;6.18;;;;;;;;;;4336513;32;354138;-86
2023/05/20 11:35:47;;;;;;;11.63;5.85;;;;;;;;;;4331826;32;342594;-90
2023/05/20 11:38:14;;;;;;;10.75;5.40;;;;;;;;;;4343688;32;317722;-80
2023/05/20 11:40:44;;;;;;;8.27;4.97;;;;;;;;;;4353800;32;318159;-89
2023/05/20 11:43:12;;;;;;;6.78;4.45;;;;;;;;;;4343107;32;316717;-79
2023/05/20 11:45:40;;;;;;;15.85;6.07;;;;;;;;;;4340185;32;317304;-89
2023/05/20 11:48:07;;;;;;;21.23;5.90;;;;;;;;;;4329748;32;318558;-81
2023/05/20 11:50:38;;;;;;;12.40;5.22;;;;;;;;;;4340068;32;318796;-79
2023/05/20 11:53:07;;;;;;;9.93;5.03;;;;;;;;;;4329147;32;318347;-87
2023/05/20 11:55:34;;;;;;;18.65;4.03;;;;;;;;;;4336407;32;316772;-86
2023/05/20 11:58:03;;;;;;;9.60;4.65;;;;;;;;;;4337596;32;318326;-90
2023/05/20 12:00:29;;;;;;;6.68;3.80;;;;;;;;;;4339877;32;316681;-86
2023/05/20 12:02:56;;;;;;;8.10;4.18;;;;;;;;;;4339303;32;316790;-86
2023/05/20 12:05:23;;;;;;;24.83;22.08;;;;;;;;;;4327206;32;416515;-81
2023/05/20 12:07:50;;;;;;;8.13;3.90;;;;;;;;;;4338401;32;319413;-88
2023/05/20 12:10:18;;;;;;;6.85;3.50;;;;;;;;;;4329204;32;317352;-86
2023/05/20 12:12:45;;;;;;;7.68;3.90;;;;;;;;;;4338446;32;317239;-88
2023/05/20 12:15:12;;;;;;;5.60;3.78;;;;;;;;;;4328654;32;316989;-83
2023/05/20 12:17:47;;;;;;;5.07;3.62;;;;;;;;;;4338041;32;317449;-85
2023/05/20 12:20:16;;;;;;;4.12;2.65;;;;;;;;;;4329027;32;316823;-80
2023/05/20 12:22:43;;;;;;;10.05;3.37;;;;;;;;;;4339484;32;316513;-90
2023/05/20 12:25:12;;;;;;;4.03;2.85;;;;;;;;;;4328559;32;322487;-84
2023/05/20 12:27:40;;;;;;;5.50;3.33;;;;;;;;;;4338443;32;317117;-89
2023/05/20 12:30:09;;;;;;;6.00;3.62;;;;;;;;;;4329861;32;317270;-83
2023/05/20 12:32:36;;;;;;;14.57;4.55;;;;;;;;;;4336796;32;316506;-86
2023/05/20 12:35:04;;;;;;;7.22;4.82;;;;;;;;;;4326783;32;318150;-83
2023/05/20 12:37:31;;;;;;;11.35;5.12;;;;;;;;;;4323395;33;317669;-85
2023/05/20 12:39:58;;;;;;;9.23;4.03;;;;;;;;;;4325158;32;348954;-80
2023/05/20 12:42:24;;;;;;;4.47;3.72;;;;;;;;;;4359747;32;317319;-78
2023/05/20 12:44:53;;;;;;;7.22;4.40;;;;;;;;;;4331020;32;317336;-81
2023/05/20 12:47:21;;;;;;;7.00;4.43;;;;;;;;;;4326384;32;349702;-82
2023/05/20 12:49:47;;;;;;;4.85;3.85;;;;;;;;;;4338565;32;335731;-79
2023/05/20 12:52:14;;;;;;;8.10;4.28;;;;;;;;;;4329362;32;317533;-80
2023/05/20 12:54:41;;;;;;;5.80;3.70;;;;;;;;;;4339208;32;317691;-78
2023/05/20 12:57:08;;;;;;;6.28;4.07;;;;;;;;;;4328299;32;317045;-82
2023/05/20 12:59:34;;;;;;;6.43;4.05;;;;;;;;;;4339001;32;317253;-79
2023/05/20 13:02:03;;;;;;;5.70;4.20;;;;;;;;;;4328665;32;317103;-79
2023/05/20 13:04:29;;;;;;;4.72;3.33;;;;;;;;;;4338884;32;317172;-82
2023/05/20 13:06:57;;;;;;;4.53;3.70;;;;;;;;;;4338797;32;317400;-79
2023/05/20 13:09:24;;;;;;;9.10;4.20;;;;;;;;;;4325393;32;417689;-79
2023/05/20 13:11:50;;;;;;;9.52;4.10;;;;;;;;;;4339017;32;317168;-79
2023/05/20 13:14:17;;;;;;;6.53;3.85;;;;;;;;;;4329080;32;317224;-79
2023/05/20 13:16:44;;;;;;;6.30;3.55;;;;;;;;;;4337366;32;317185;-80
2023/05/20 13:19:12;;;;;;;4.90;4.30;;;;;;;;;;4327890;32;317292;-80
2023/05/20 13:21:38;;;;;;;9.63;3.85;;;;;;;;;;4337461;32;352334;-79
2023/05/20 13:24:06;;;;;;;5.32;4.35;;;;;;;;;;4328952;32;317292;-79
2023/05/20 13:26:32;;;;;;;6.90;4.53;;;;;;;;;;4342193;32;317332;-80
2023/05/20 13:28:59;;;;;;;4.62;4.12;;;;;;;;;;4343683;32;317172;-80
2023/05/20 13:31:26;;;;;;;9.73;4.65;;;;;;;;;;4351883;32;317667;-79
2023/05/20 13:33:54;;;;;;;7.07;4.18;;;;;;;;;;4344419;32;317582;-79
2023/05/20 13:36:22;;;;;;;8.55;3.97;;;;;;;;;;4335821;32;317110;-81
2023/05/20 13:38:48;;;;;;;8.18;4.40;;;;;;;;;;4341897;32;316810;-86
2023/05/20 13:41:15;;;;;;;8.25;4.25;;;;;;;;;;4330435;32;317342;-87
2023/05/20 13:43:42;;;;;;;11.27;3.80;;;;;;;;;;4352208;32;317465;-87
2023/05/20 13:46:08;;;;;;;4.70;3.90;;;;;;;;;;4343033;32;318381;-80
2023/05/20 13:48:35;;;;;;;4.93;3.92;;;;;;;;;;4353094;32;316637;-84
2023/05/20 13:51:40;;;;;;;9.27;4.85;;;;;;;;;;4342182;32;316758;-88
2023/05/20 13:54:07;;;;;;;8.95;4.10;;;;;;;;;;4342350;32;317492;-85
2023/05/20 13:56:34;;;;;;;9.50;4.15;;;;;;;;;;4354146;32;317150;-88
2023/05/20 13:59:01;;;;;;;6.07;4.00;;;;;;;;;;4344492;32;350324;-80
2023/05/20 14:01:28;;;;;;;10.00;4.12;;;;;;;;;;4365950;32;316860;-79
2023/05/20 14:03:55;;;;;;;7.05;4.78;;;;;;;;;;4365139;32;318079;-79
2023/05/20 14:06:21;;;;;;;6.22;4.60;;;;;;;;;;4354534;32;316901;-86
2023/05/20 14:08:49;;;;;;;7.20;4.65;;;;;;;;;;4366308;32;316462;-83
2023/05/20 14:11:16;;;;;;;8.05;4.72;;;;;;;;;;4349098;32;317441;-88
2023/05/20 14:13:43;;;;;;;8.25;4.85;;;;;;;;;;4353241;32;317247;-86
2023/05/20 14:16:10;;;;;;;6.75;4.37;;;;;;;;;;4342881;32;317802;-87
2023/05/20 14:18:37;;;;;;;4.25;3.67;;;;;;;;;;4351564;32;317532;-79
2023/05/20 14:21:04;;;;;;;6.87;4.40;;;;;;;;;;4341553;32;328612;-80